Time;durP1;ratioP1;P1;durP2;ratioP2;P2;SDS_P1;SDS_P2;PMS_P1;PMS_P2;Temp;Humidity;BMP_temperature;BMP_pressure;BME280_temperature;BME280_humidity;BME280_pressure;Samples;Min_cycle;Max_cycle;Signal;HPM_P1;HPM_P2
2022/05/23 00:00:27;;;;;;;3.63;2.47;;;20.20;98.60;;;21.05;nan;99825.75;5041945;28;20649;-67
2022/05/23 00:02:54;;;;;;;2.53;2.43;;;20.30;98.50;;;21.08;nan;99825.38;5050805;28;20659;-68
2022/05/23 00:05:22;;;;;;;3.30;3.00;;;20.30;98.30;;;21.08;nan;99817.41;5036475;28;20675;-67
2022/05/23 00:07:50;;;;;;;3.60;3.30;;;20.40;98.40;;;21.09;nan;99818.22;5038012;28;20649;-68
2022/05/23 00:10:20;;;;;;;3.30;3.10;;;20.30;98.70;;;21.15;nan;99809.47;5027800;28;21301;-67
2022/05/23 00:12:48;;;;;;;3.20;3.00;;;20.40;98.80;;;21.11;nan;99814.34;5041052;28;20648;-67
2022/05/23 00:15:16;;;;;;;6.40;3.00;;;20.40;99.10;;;21.06;nan;99811.47;5033428;28;21125;-65
2022/05/23 00:17:44;;;;;;;2.90;2.70;;;20.30;99.40;;;21.00;nan;99806.91;5030332;28;20664;-65
2022/05/23 00:20:14;;;;;;;5.60;3.23;;;20.20;99.40;;;20.99;nan;99797.34;5029242;28;20647;-66
2022/05/23 00:22:41;;;;;;;2.80;2.60;;;20.20;99.60;;;20.99;nan;99794.69;5030888;28;20653;-65
2022/05/23 00:25:10;;;;;;;3.20;3.00;;;20.30;99.60;;;20.95;nan;99796.09;5030071;28;20633;-64
2022/05/23 00:27:40;;;;;;;2.50;2.40;;;20.20;99.50;;;20.94;nan;99793.63;5030458;28;20664;-64
2022/05/23 00:30:14;;;;;;;2.80;2.60;;;20.20;99.40;;;20.94;nan;99786.50;5027244;28;20628;-68
2022/05/23 00:35:27;;;;;;;4.00;2.90;;;20.20;99.00;;;20.92;nan;99791.19;5036320;28;20639;-67
2022/05/23 00:37:56;;;;;;;2.93;2.83;;;20.20;99.10;;;20.81;nan;99789.91;5043140;28;20755;-67
2022/05/23 00:40:38;;;;;;;2.97;2.67;;;20.10;99.10;;;20.75;nan;99781.91;5029590;28;20632;-67
2022/05/23 00:43:22;;;;;;;3.27;3.03;;;20.00;99.30;;;20.75;nan;99780.09;5029888;28;20691;-64
2022/05/23 00:45:53;;;;;;;2.60;2.43;;;20.00;99.10;;;20.82;nan;99778.28;5030403;28;21197;-68
2022/05/23 00:48:26;;;;;;;3.50;3.20;;;20.10;98.90;;;20.81;nan;99776.66;5037446;28;20660;-67
2022/05/23 00:51:00;;;;;;;2.70;2.60;;;20.10;99.00;;;20.81;nan;99775.81;5015347;28;20690;-67
2022/05/23 00:53:34;;;;;;;3.73;2.80;;;20.10;99.40;;;20.73;nan;99765.38;5029515;28;20983;-67
2022/05/23 00:56:02;;;;;;;3.10;2.90;;;20.00;99.40;;;20.70;nan;99760.47;5028190;28;20633;-67
2022/05/23 00:58:37;;;;;;;3.07;2.87;;;20.00;99.90;;;20.68;nan;99754.53;5028658;28;20655;-67
2022/05/23 01:01:11;;;;;;;4.80;2.93;;;20.00;99.90;;;20.56;nan;99751.63;5032373;28;20643;-66
2022/05/23 01:03:39;;;;;;;3.17;2.97;;;19.90;99.90;;;20.56;nan;99737.56;5021554;28;20718;-67
2022/05/23 01:06:08;;;;;;;3.37;3.17;;;19.80;99.90;;;20.45;nan;99735.47;5028978;28;20625;-67
2022/05/23 01:08:37;;;;;;;3.20;2.90;;;19.70;99.90;;;20.48;nan;99735.09;5027711;28;20664;-67
2022/05/23 01:11:04;;;;;;;3.80;3.50;;;19.80;99.90;;;20.45;nan;99719.56;5012768;28;20637;-65
2022/05/23 01:13:32;;;;;;;3.63;3.33;;;19.80;99.90;;;20.48;nan;99716.53;5009708;28;20621;-68
2022/05/23 01:15:59;;;;;;;3.40;3.13;;;19.80;99.90;;;20.48;nan;99711.22;5018390;28;20658;-67
2022/05/23 01:18:26;;;;;;;3.57;3.27;;;19.80;99.90;;;20.39;nan;99691.19;5039428;28;20665;-68
2022/05/23 01:21:00;;;;;;;8.63;3.73;;;19.70;99.90;;;20.41;nan;99678.56;5028133;28;21186;-67
2022/05/23 01:23:51;;;;;;;3.50;3.30;;;19.70;99.90;;;20.35;nan;99671.41;5030875;28;20670;-67
2022/05/23 01:26:18;;;;;;;3.40;3.10;;;19.70;99.90;;;20.27;nan;99671.59;5014783;28;20694;-67
2022/05/23 01:28:46;;;;;;;3.60;3.30;;;19.60;99.90;;;20.28;nan;99678.50;5031799;28;20656;-68
2022/05/23 01:31:15;;;;;;;3.90;3.57;;;19.60;99.90;;;20.19;nan;99684.97;5034048;28;20616;-67
2022/05/23 01:33:42;;;;;;;3.50;3.20;;;19.50;99.90;;;20.15;nan;99697.75;5014260;28;21415;-66
2022/05/23 01:36:13;;;;;;;3.53;3.03;;;19.50;99.90;;;20.26;nan;99707.00;5016026;28;20628;-67
2022/05/23 01:38:40;;;;;;;3.00;2.80;;;19.50;99.90;;;20.33;nan;99698.13;5031808;28;20644;-67
2022/05/23 01:41:09;;;;;;;3.50;3.10;;;19.60;99.90;;;20.36;nan;99695.06;5032064;28;20987;-67
2022/05/23 01:43:36;;;;;;;3.50;3.20;;;19.70;99.90;;;20.43;nan;99701.22;5043786;28;20672;-67
2022/05/23 01:46:03;;;;;;;3.83;3.53;;;19.80;99.90;;;20.44;nan;99702.03;5038543;28;20640;-67
2022/05/23 01:48:30;;;;;;;4.10;3.73;;;19.80;99.90;;;20.44;nan;99684.31;5041827;28;20653;-67
2022/05/23 01:50:57;;;;;;;4.03;3.53;;;19.80;99.90;;;20.36;nan;99676.50;5033797;28;20631;-67
2022/05/23 01:53:26;;;;;;;3.43;3.13;;;19.70;99.90;;;20.34;nan;99662.66;5033813;28;20643;-67
2022/05/23 01:55:53;;;;;;;5.57;3.83;;;19.70;99.90;;;20.32;nan;99663.84;5030378;28;21239;-69
2022/05/23 02:01:13;;;;;;;3.60;3.40;;;19.70;99.90;;;20.30;nan;99660.56;5032373;28;21241;-67
2022/05/23 02:01:13;;;;;;;4.00;3.60;;;19.60;99.90;;;20.28;nan;99652.84;5036580;28;20635;-69
2022/05/23 02:03:42;;;;;;;3.70;3.40;;;19.60;99.90;;;20.16;nan;99649.09;5043974;28;20674;-65
2022/05/23 02:06:10;;;;;;;3.43;3.10;;;19.50;99.90;;;20.14;nan;99657.19;5040755;28;21275;-69
2022/05/23 02:08:37;;;;;;;6.40;3.23;;;19.50;99.90;;;20.09;nan;99656.16;5049409;28;20689;-67
2022/05/23 02:11:06;;;;;;;3.70;3.37;;;19.40;99.90;;;20.10;nan;99648.00;5051322;28;20612;-65
2022/05/23 02:13:36;;;;;;;4.17;3.03;;;19.40;99.90;;;20.17;nan;99645.41;5042518;28;20636;-68
2022/05/23 02:16:05;;;;;;;6.07;3.43;;;19.50;99.90;;;20.14;nan;99643.97;5016012;28;20639;-68
2022/05/23 02:18:32;;;;;;;4.07;3.77;;;19.50;99.90;;;20.01;nan;99640.44;5030640;28;20659;-67
2022/05/23 02:20:59;;;;;;;4.00;3.70;;;19.30;99.90;;;20.01;nan;99641.25;5029577;28;21223;-69
2022/05/23 02:23:26;;;;;;;4.10;3.80;;;19.40;99.90;;;19.95;nan;99644.66;5032277;28;20656;-67
2022/05/23 02:25:54;;;;;;;3.67;3.37;;;19.30;99.90;;;19.96;nan;99633.06;5030054;28;20629;-67
2022/05/23 02:28:21;;;;;;;4.00;3.70;;;19.30;99.90;;;19.98;nan;99624.91;5033043;28;20679;-67
2022/05/23 02:30:48;;;;;;;6.40;3.90;;;19.40;99.90;;;20.02;nan;99619.06;5030603;28;20616;-67
2022/05/23 02:33:16;;;;;;;4.10;3.40;;;19.40;99.90;;;19.97;nan;99618.84;5046532;28;20620;-67
2022/05/23 02:35:43;;;;;;;32.57;4.03;;;19.30;99.90;;;19.97;nan;99616.19;5040177;28;20643;-68
2022/05/23 02:38:10;;;;;;;3.40;3.17;;;19.30;99.90;;;19.98;nan;99622.28;5030557;28;21097;-68
2022/05/23 02:40:37;;;;;;;3.53;3.23;;;19.30;99.90;;;19.99;nan;99618.63;5029901;28;21221;-67
2022/05/23 02:43:04;;;;;;;3.63;3.33;;;19.30;99.90;;;20.02;nan;99615.56;5031358;28;20676;-67
2022/05/23 02:45:31;;;;;;;3.80;3.27;;;19.40;99.90;;;20.02;nan;99631.47;5031505;28;21126;-67
2022/05/23 02:47:59;;;;;;;7.20;3.80;;;19.30;99.90;;;19.99;nan;99622.09;5031881;28;20663;-65
2022/05/23 02:50:25;;;;;;;4.23;3.77;;;19.30;99.90;;;19.97;nan;99608.25;5031391;28;20624;-67
2022/05/23 02:52:53;;;;;;;4.13;3.67;;;19.30;99.90;;;19.97;nan;99608.25;5041674;28;21006;-67
2022/05/23 02:55:20;;;;;;;7.93;4.00;;;19.30;99.90;;;19.90;nan;99606.56;5048535;28;20629;-68
2022/05/23 02:57:47;;;;;;;4.47;3.90;;;19.20;99.90;;;19.85;nan;99606.31;5032198;28;20656;-68
2022/05/23 03:00:15;;;;;;;6.70;3.90;;;19.20;99.90;;;19.77;nan;99604.66;5024789;28;21090;-67
2022/05/23 03:05:36;;;;;;;4.17;3.77;;;19.20;99.90;;;19.79;nan;99601.78;5038247;28;20639;-67
2022/05/23 03:08:04;;;;;;;3.60;3.40;;;19.20;99.90;;;19.78;nan;99597.53;5045948;28;21059;-67
2022/05/23 03:10:31;;;;;;;4.80;3.93;;;19.10;99.90;;;19.69;nan;99602.16;5030668;28;20643;-69
2022/05/23 03:12:58;;;;;;;5.57;3.90;;;19.00;99.90;;;19.69;nan;99596.84;5030726;28;20625;-67
2022/05/23 03:15:25;;;;;;;4.17;3.57;;;19.00;99.90;;;19.73;nan;99600.75;5022412;28;20633;-67
2022/05/23 03:17:52;;;;;;;3.83;3.53;;;19.10;99.90;;;19.76;nan;99604.84;5043492;28;20697;-68
2022/05/23 03:20:19;;;;;;;4.93;3.70;;;19.10;99.90;;;19.70;nan;99611.72;5049602;28;20611;-68
2022/05/23 03:28:17;;;;;;;4.30;3.57;;;18.90;99.90;;;19.49;nan;99619.69;5011691;28;21447;-67
2022/05/23 03:30:44;;;;;;;8.33;3.80;;;18.90;99.90;;;19.52;nan;99634.38;5018668;28;21214;-67
2022/05/23 03:33:12;;;;;;;7.80;3.80;;;18.90;99.90;;;19.47;nan;99634.13;5012575;28;20624;-67
2022/05/23 03:35:39;;;;;;;3.80;3.53;;;18.80;99.90;;;19.43;nan;99646.91;5029515;28;20636;-67
2022/05/23 03:38:07;;;;;;;3.33;3.13;;;18.80;99.90;;;19.39;nan;99656.25;5030492;28;20667;-69
2022/05/23 03:40:38;;;;;;;3.00;2.80;;;18.80;99.90;;;19.40;nan;99672.94;5042009;28;20817;-67
2022/05/23 03:43:07;;;;;;;4.63;3.53;;;18.70;99.90;;;19.34;nan;99685.09;5033700;28;21013;-68
2022/05/23 03:45:36;;;;;;;3.50;3.20;;;18.70;99.90;;;19.29;nan;99706.78;5028501;28;20629;-68
2022/05/23 03:48:05;;;;;;;6.10;2.90;;;18.70;99.90;;;19.27;nan;99742.38;5044619;28;20654;-69
2022/05/23 03:50:32;;;;;;;3.30;2.90;;;18.70;99.90;;;19.04;nan;99783.97;5029342;28;20651;-68
2022/05/23 03:53:01;;;;;;;3.43;3.20;;;18.50;99.90;;;19.07;nan;99823.28;5049855;28;20619;-67
2022/05/23 03:55:29;;;;;;;4.07;3.77;;;18.40;99.90;;;18.98;nan;99830.50;5046099;28;20636;-67
2022/05/23 03:57:56;;;;;;;7.60;3.23;;;18.40;99.90;;;19.06;nan;99829.59;5031113;28;20652;-68
2022/05/23 04:00:23;;;;;;;5.30;3.53;;;18.40;99.90;;;19.03;nan;99828.13;5029197;28;20640;-67
2022/05/23 04:02:51;;;;;;;2.87;2.67;;;18.40;99.90;;;19.11;nan;99821.91;5030318;28;20673;-67
2022/05/23 04:05:18;;;;;;;4.17;3.60;;;18.50;99.90;;;19.14;nan;99810.97;5024335;28;20677;-68
2022/05/23 04:07:45;;;;;;;3.20;3.00;;;18.50;99.90;;;19.23;nan;99815.13;5040426;28;20641;-67
2022/05/23 04:10:16;;;;;;;3.90;3.60;;;18.60;99.90;;;19.27;nan;99808.50;5039163;28;21070;-68
2022/05/23 04:12:44;;;;;;;3.33;3.03;;;18.60;99.90;;;19.33;nan;99820.97;5029698;28;20996;-67
2022/05/23 04:15:12;;;;;;;3.57;3.27;;;18.70;99.90;;;19.35;nan;99818.97;5029160;28;20659;-65
2022/05/23 04:17:39;;;;;;;3.80;3.50;;;18.70;99.90;;;19.45;nan;99827.44;5029735;28;21241;-67
2022/05/23 04:20:08;;;;;;;2.60;2.50;;;18.80;99.90;;;19.50;nan;99834.81;5028290;28;20698;-67
2022/05/23 04:22:36;;;;;;;5.47;3.47;;;18.90;99.90;;;19.52;nan;99823.06;5030844;28;20677;-68
2022/05/23 04:25:06;;;;;;;4.03;3.10;;;18.90;99.90;;;19.48;nan;99828.91;5028625;28;20668;-68
2022/05/23 04:27:33;;;;;;;6.80;3.53;;;18.80;99.90;;;19.33;nan;99827.09;5027378;28;20675;-67
2022/05/23 04:30:01;;;;;;;5.80;3.33;;;18.70;99.90;;;19.37;nan;99821.44;5029551;28;21175;-68
2022/05/23 04:35:13;;;;;;;2.97;2.67;;;18.60;99.90;;;19.23;nan;99786.03;5047565;28;20677;-66
2022/05/23 04:37:44;;;;;;;4.20;3.57;;;18.60;99.90;;;19.11;nan;99776.94;5028995;28;20671;-67
2022/05/23 04:40:20;;;;;;;5.57;3.73;;;18.50;99.90;;;18.95;nan;99763.97;5030088;28;20631;-67
2022/05/23 04:42:47;;;;;;;3.80;2.90;;;18.40;99.90;;;19.04;nan;99758.38;5030990;28;21023;-68
2022/05/23 04:45:15;;;;;;;3.90;3.40;;;18.40;99.90;;;18.89;nan;99747.00;5033103;28;20675;-64
2022/05/23 04:50:29;;;;;;;4.67;2.93;;;18.30;99.90;;;18.75;nan;99715.31;5030956;28;20706;-67
2022/05/23 04:52:57;;;;;;;4.53;4.13;;;18.20;99.90;;;18.68;nan;99694.09;5036168;28;20640;-67
2022/05/23 04:55:25;;;;;;;4.83;3.63;;;18.10;99.90;;;18.62;nan;99688.72;5043603;28;20637;-64
2022/05/23 04:57:53;;;;;;;7.17;4.87;;;18.10;99.90;;;18.73;nan;99675.03;5029477;28;20664;-67
2022/05/23 05:00:21;;;;;;;5.97;5.33;;;18.20;99.90;;;18.73;nan;99643.34;5028196;28;20636;-67
2022/05/23 05:02:50;;;;;;;3.47;2.30;;;18.20;99.90;;;18.68;nan;99609.53;5044013;28;20692;-67
2022/05/23 05:05:18;;;;;;;7.23;5.50;;;18.10;99.90;;;18.53;nan;99566.50;5052638;28;20659;-67
2022/05/23 05:07:45;;;;;;;5.40;3.80;;;18.00;99.90;;;18.43;nan;99506.03;5038897;28;20676;-67
2022/05/23 05:10:12;;;;;;;6.40;4.17;;;18.00;99.90;;;18.23;nan;99478.59;5032642;28;20633;-67
2022/05/23 05:12:39;;;;;;;4.53;1.40;;;17.80;99.90;;;18.09;nan;99481.25;5032751;28;20635;-67
2022/05/23 05:15:08;;;;;;;8.23;4.30;;;17.70;99.90;;;17.89;nan;99499.50;5031611;28;20640;-67
2022/05/23 05:17:35;;;;;;;6.17;4.80;;;17.40;99.90;;;17.96;nan;99497.75;5012814;28;20785;-67
2022/05/23 05:20:03;;;;;;;6.50;5.77;;;17.40;99.90;;;18.01;nan;99518.31;5022379;28;20644;-64
2022/05/23 05:22:30;;;;;;;5.17;3.87;;;17.50;99.90;;;18.11;nan;99509.13;5033684;28;21255;-67
2022/05/23 05:24:57;;;;;;;2.27;2.17;;;17.60;99.90;;;18.22;nan;99473.50;5032363;28;20676;-67
2022/05/23 05:27:24;;;;;;;1.40;1.30;;;17.80;99.90;;;17.77;nan;99437.66;5033192;28;20652;-67
2022/05/23 05:29:51;;;;;;;5.80;5.00;;;17.60;99.90;;;17.93;nan;99463.03;5035113;28;21048;-66
2022/05/23 05:32:43;;;;;;;5.90;4.33;;;17.40;99.90;;;17.72;nan;99443.47;5042414;28;20636;-66
2022/05/23 05:35:37;;;;;;;6.23;5.00;;;17.40;99.90;;;17.97;nan;99432.63;5030183;28;21156;-64
2022/05/23 05:38:22;;;;;;;6.83;5.47;;;17.40;99.90;;;18.13;nan;99440.28;5028567;28;20647;-67
2022/05/23 05:41:01;;;;;;;7.53;4.50;;;17.60;99.90;;;18.46;nan;99434.34;5052250;28;20677;-67
2022/05/23 05:43:35;;;;;;;9.30;6.10;;;18.00;99.90;;;18.83;nan;99430.59;5038978;28;20632;-67
2022/05/23 05:46:21;;;;;;;5.50;4.90;;;18.30;99.90;;;19.31;nan;99442.94;5043146;28;20632;-67
2022/05/23 05:48:50;;;;;;;7.00;5.10;;;18.90;99.90;;;19.67;nan;99440.13;5050816;28;21282;-69
2022/05/23 05:51:22;;;;;;;8.07;5.60;;;19.20;99.90;;;20.03;nan;99432.72;5034616;28;20753;-67
2022/05/23 05:53:50;;;;;;;9.00;5.13;;;19.60;99.90;;;20.33;nan;99432.38;5032202;28;20685;-67
2022/05/23 05:56:18;;;;;;;5.73;4.40;;;19.80;99.90;;;20.64;nan;99448.50;5033140;28;20640;-67
2022/05/23 05:58:45;;;;;;;5.97;4.50;;;20.20;99.90;;;20.86;nan;99465.88;5031842;28;20664;-66
2022/05/23 06:01:13;;;;;;;8.00;5.43;;;20.40;99.90;;;21.11;nan;99452.81;5029353;28;20639;-67
2022/05/23 06:03:40;;;;;;;5.10;4.60;;;20.60;99.90;;;21.34;nan;99455.81;5036332;28;20652;-65
2022/05/23 06:11:38;;;;;;;5.17;4.63;;;21.10;99.90;;;21.70;nan;99455.34;5045333;28;20631;-66
2022/05/23 06:14:05;;;;;;;6.70;5.00;;;21.20;99.90;;;21.99;nan;99454.84;5051802;28;20631;-66
2022/05/23 06:16:36;;;;;;;7.87;5.17;;;21.40;99.90;;;22.95;nan;99445.63;5047201;28;20639;-66
2022/05/23 06:19:04;;;;;;;7.57;5.67;;;22.50;99.90;;;24.12;nan;99448.03;5044630;28;20709;-67
2022/05/23 06:21:32;;;;;;;5.83;4.90;;;23.80;99.90;;;25.20;nan;99460.09;5046283;28;21006;-67
2022/05/23 06:23:59;;;;;;;5.47;4.70;;;24.90;99.90;;;26.30;nan;99450.13;5040117;28;20786;-66
2022/05/23 06:26:31;;;;;;;4.30;3.90;;;26.00;99.60;;;26.99;nan;99455.06;5032002;28;20624;-65
2022/05/23 06:28:58;;;;;;;5.40;4.67;;;26.80;96.50;;;27.51;nan;99453.69;5032059;28;20664;-65
2022/05/23 06:31:25;;;;;;;12.50;4.30;;;27.30;94.90;;;27.78;nan;99452.94;5038837;28;20747;-67
2022/05/23 06:33:52;;;;;;;6.40;4.80;;;27.50;93.50;;;28.02;nan;99448.97;5040540;28;20620;-65
2022/05/23 06:36:19;;;;;;;5.00;4.50;;;27.70;92.60;;;28.13;nan;99456.06;5031154;28;20633;-65
2022/05/23 06:38:47;;;;;;;4.90;4.50;;;27.80;91.90;;;27.93;nan;99456.63;5032955;28;20661;-66
2022/05/23 06:41:15;;;;;;;4.40;4.00;;;27.50;91.80;;;27.83;nan;99458.38;5030937;28;20663;-65
2022/05/23 06:43:43;;;;;;;4.80;4.40;;;27.40;91.50;;;27.33;nan;99459.31;5029523;28;21174;-68
2022/05/23 06:46:12;;;;;;;4.93;4.53;;;26.90;91.50;;;27.53;nan;99461.50;5028932;28;20645;-65
2022/05/23 06:48:40;;;;;;;5.17;4.63;;;27.10;91.70;;;27.62;nan;99455.44;5031697;28;20660;-67
2022/05/23 06:51:07;;;;;;;6.90;4.80;;;27.10;90.90;;;27.22;nan;99462.06;5035300;28;20679;-67
2022/05/23 06:53:34;;;;;;;5.30;4.03;;;26.80;91.30;;;27.54;nan;99466.59;5033609;28;20656;-69
2022/05/23 06:56:01;;;;;;;5.33;4.67;;;27.10;91.30;;;28.26;nan;99471.78;5040189;28;20696;-67
2022/05/23 06:58:29;;;;;;;4.50;4.10;;;27.70;90.30;;;28.84;nan;99474.47;5036248;28;20664;-68
2022/05/23 07:00:56;;;;;;;5.70;3.90;;;28.50;88.00;;;28.87;nan;99475.84;5033141;28;21047;-68
2022/05/23 07:03:23;;;;;;;4.60;4.20;;;28.40;86.40;;;29.46;nan;99469.28;5018867;28;21030;-67
2022/05/23 07:14:07;;;;;;;3.27;2.97;;;28.90;81.40;;;28.97;nan;99495.50;5030073;28;20663;-65
2022/05/23 07:16:35;;;;;;;3.33;3.13;;;28.40;81.90;;;26.90;nan;99496.66;5032543;28;20644;-69
2022/05/23 07:19:04;;;;;;;3.60;3.37;;;27.10;83.10;;;26.58;nan;99504.38;5042590;28;21086;-64
2022/05/23 07:21:32;;;;;;;3.43;3.23;;;26.20;86.80;;;25.71;nan;99499.41;5033025;28;20644;-66
2022/05/23 07:23:59;;;;;;;4.27;3.70;;;25.40;88.80;;;25.22;nan;99504.19;5046845;28;20627;-66
2022/05/23 07:26:27;;;;;;;4.20;3.90;;;24.80;90.70;;;24.12;nan;99501.34;5032067;28;20625;-68
2022/05/23 07:28:55;;;;;;;4.10;2.90;;;23.80;93.00;;;23.41;nan;99512.53;5034268;28;21426;-68
2022/05/23 07:31:22;;;;;;;4.03;3.53;;;23.00;94.50;;;23.20;nan;99504.13;5039884;28;20636;-67
2022/05/23 07:33:50;;;;;;;3.53;2.80;;;22.60;96.30;;;22.79;nan;99496.66;5041211;28;20626;-67
2022/05/23 07:36:18;;;;;;;3.47;3.17;;;22.30;97.80;;;22.99;nan;99482.22;5033669;28;20643;-67
2022/05/23 07:38:46;;;;;;;3.57;3.27;;;22.40;98.20;;;23.05;nan;99491.16;5032184;28;21217;-66
2022/05/23 07:41:13;;;;;;;3.77;3.47;;;22.50;98.30;;;23.17;nan;99483.28;5035070;28;20652;-67
2022/05/23 07:43:42;;;;;;;1.83;1.73;;;22.60;98.30;;;23.01;nan;99490.78;5035754;28;20679;-66
2022/05/23 07:46:14;;;;;;;3.70;3.40;;;22.70;98.40;;;23.31;nan;99490.91;5027725;28;20668;-68
2022/05/23 07:48:46;;;;;;;4.30;3.20;;;22.80;98.60;;;22.58;nan;99468.56;5040444;28;21001;-68
2022/05/23 07:51:15;;;;;;;3.47;3.20;;;22.10;99.30;;;22.79;nan;99470.91;5030871;28;20623;-67
2022/05/23 08:02:03;;;;;;;9.70;5.30;;;25.90;93.50;;;28.14;nan;99463.84;5038299;28;20640;-66
2022/05/23 08:04:30;;;;;;;3.63;3.33;;;27.80;90.60;;;28.79;nan;99463.69;5044437;28;20664;-65
2022/05/23 08:06:58;;;;;;;3.60;3.17;;;28.60;86.20;;;29.79;nan;99458.16;5025168;28;20644;-67
2022/05/23 08:09:25;;;;;;;2.50;2.40;;;29.50;82.00;;;29.57;nan;99456.69;5037023;28;20644;-67
2022/05/23 08:11:55;;;;;;;3.30;3.00;;;29.30;80.80;;;30.08;nan;99442.41;5031753;28;20643;-67
2022/05/23 08:14:23;;;;;;;4.07;2.73;;;29.70;79.10;;;30.64;nan;99438.72;5040518;28;20638;-66
2022/05/23 08:16:51;;;;;;;4.70;3.37;;;30.50;75.30;;;;;;5043608;28;20636;-68
2022/05/23 08:19:18;;;;;;;3.10;2.90;;;31.10;72.90;;;;;;5041127;28;21086;-68
2022/05/23 08:21:51;;;;;;;3.77;3.30;;;29.90;74.90;;;;;;5028246;28;20641;-65
2022/05/23 08:24:18;;;;;;;3.40;3.10;;;29.20;75.70;;;;;;5030229;28;20616;-67
2022/05/23 08:26:45;;;;;;;4.60;3.20;;;27.70;78.30;;;;;;5030113;28;20644;-65
2022/05/23 08:29:13;;;;;;;3.40;3.10;;;26.60;81.60;;;;;;5056395;22;21244;-65
2022/05/23 08:31:45;;;;;;;4.07;3.20;;;25.70;84.80;;;;;;5049949;28;20669;-64
2022/05/23 08:34:12;;;;;;;4.20;3.40;;;26.00;85.80;;;;;;5049663;28;21055;-68
2022/05/23 08:36:39;;;;;;;3.17;2.97;;;28.00;81.00;;;;;;5049256;28;20688;-65
2022/05/23 08:39:06;;;;;;;3.50;3.20;;;29.70;76.40;;;;;;5034738;28;20751;-65
2022/05/23 08:41:38;;;;;;;4.00;3.20;;;31.90;71.40;;;33.07;nan;99457.38;5053205;28;21195;-66
2022/05/23 08:44:54;;;;;;;5.70;3.10;;;33.10;66.90;;;34.40;nan;99454.41;5053640;28;20639;-65
2022/05/23 08:47:43;;;;;;;3.53;3.33;;;34.60;62.30;;;35.23;nan;99464.44;5050130;28;20632;-66
2022/05/23 08:50:55;;;;;;;2.97;2.83;;;35.10;59.20;;;36.92;nan;99477.34;5047825;28;20656;-66
2022/05/23 08:53:42;;;;;;;3.93;2.90;;;36.70;57.20;;;39.13;nan;99482.78;4998379;28;20638;-67
2022/05/23 08:56:33;;;;;;;4.40;3.37;;;38.80;53.50;;;37.92;nan;99479.25;4994811;28;20643;-67
2022/05/23 08:59:03;;;;;;;3.60;3.30;;;38.10;51.20;;;39.34;nan;99483.66;5019595;28;20660;-66
2022/05/23 09:01:48;;;;;;;4.83;3.00;;;39.20;50.10;;;37.43;nan;99476.03;5045738;28;20758;-65
2022/05/23 09:04:50;;;;;;;3.07;2.80;;;37.90;50.60;;;36.96;nan;99475.63;5046626;28;21201;-64
2022/05/23 09:07:29;;;;;;;3.70;3.40;;;36.70;51.80;;;38.52;nan;99486.69;5042776;28;20639;-65
2022/05/23 09:09:59;;;;;;;2.80;2.60;;;38.30;50.40;;;39.49;nan;99486.66;5057760;28;20655;-65
2022/05/23 09:12:26;;;;;;;3.43;3.23;;;39.10;49.60;;;40.32;nan;99489.56;5040198;28;20639;-65
2022/05/23 09:14:53;;;;;;;7.67;5.43;;;40.10;48.20;;;38.92;nan;99492.75;5041106;28;21214;-68
2022/05/23 09:17:34;;;;;;;3.70;3.50;;;39.60;46.90;;;40.78;nan;99500.28;5040054;28;20646;-65
2022/05/23 09:20:11;;;;;;;2.87;2.67;;;40.70;47.10;;;40.18;nan;99495.31;5045842;28;20648;-66
2022/05/23 09:22:54;;;;;;;2.60;2.50;;;40.70;45.90;;;42.07;nan;99493.28;5046953;28;20693;-65
2022/05/23 09:25:25;;;;;;;3.17;2.90;;;42.30;45.20;;;41.43;nan;99466.59;5052710;28;20655;-66
2022/05/23 09:28:14;;;;;;;3.13;2.93;;;41.10;45.20;;;41.93;nan;99466.25;5051693;28;20631;-67
2022/05/23 09:30:48;;;;;;;2.37;2.23;;;41.90;44.50;;;42.54;nan;99453.19;5053354;28;20623;-68
2022/05/23 09:33:19;;;;;;;5.50;2.37;;;42.10;44.60;;;42.51;nan;99459.34;5033093;28;20650;-66
2022/05/23 09:35:50;;;;;;;3.30;3.00;;;42.50;43.70;;;42.07;nan;99449.44;5052039;28;20627;-67
2022/05/23 09:38:26;;;;;;;2.60;2.50;;;42.40;43.10;;;42.32;nan;99446.28;5051861;28;21011;-65
2022/05/23 09:40:54;;;;;;;2.60;2.50;;;42.70;43.20;;;43.40;nan;99443.31;5052616;28;20631;-66
2022/05/23 09:49:24;;;;;;;2.87;2.67;;;42.60;43.20;;;40.81;nan;99431.22;5055975;28;20658;-67
2022/05/23 09:51:51;;;;;;;3.23;3.13;;;41.20;44.00;;;42.04;nan;99428.97;5052852;28;21189;-66
2022/05/23 09:54:33;;;;;;;2.63;2.53;;;41.50;44.40;;;41.46;nan;99430.34;5053698;28;20623;-67
2022/05/23 09:57:04;;;;;;;2.73;2.63;;;41.70;44.00;;;40.75;nan;99412.63;5063879;28;20634;-66
2022/05/23 09:59:35;;;;;;;2.87;2.77;;;40.40;44.80;;;38.19;nan;99403.78;5053290;28;21295;-66
2022/05/23 10:02:14;;;;;;;3.17;2.90;;;38.80;46.40;;;36.60;nan;99415.09;5051551;28;21179;-65
2022/05/23 10:04:46;;;;;;;3.90;2.80;;;36.70;48.60;;;36.75;nan;99406.56;5071635;28;20626;-66
2022/05/23 10:07:33;;;;;;;3.40;3.10;;;36.20;49.50;;;36.57;nan;99405.63;5057901;28;20631;-69
2022/05/23 10:10:05;;;;;;;3.23;2.93;;;36.10;49.90;;;36.43;nan;99402.19;5042425;28;20658;-66
2022/05/23 10:12:34;;;;;;;3.50;3.20;;;35.90;50.80;;;35.88;nan;99391.78;5031791;28;20628;-66
2022/05/23 10:15:28;;;;;;;3.90;3.60;;;35.80;51.40;;;34.40;nan;99378.56;5036600;28;21010;-67
2022/05/23 10:18:06;;;;;;;3.63;3.00;;;34.20;53.10;;;32.99;nan;99383.13;5037611;28;20654;-66
2022/05/23 10:20:42;;;;;;;5.97;3.30;;;32.90;54.80;;;31.60;nan;99382.00;5037302;28;21016;-66
2022/05/23 10:23:26;;;;;;;5.73;3.60;;;31.20;58.10;;;30.96;nan;99375.72;5051484;28;21006;-67
2022/05/23 10:26:16;;;;;;;3.67;3.33;;;30.40;60.00;;;30.60;nan;99356.88;5048881;28;20807;-67
2022/05/23 10:28:56;;;;;;;5.43;3.50;;;29.80;61.30;;;30.31;nan;99366.59;5052335;28;20647;-67
2022/05/23 10:32:06;;;;;;;5.97;3.30;;;29.60;62.00;;;29.45;nan;99362.06;5050383;28;20639;-66
2022/05/23 10:34:49;;;;;;;4.20;3.80;;;29.10;63.20;;;28.97;nan;99355.06;5029384;28;20616;-66
2022/05/23 10:37:23;;;;;;;3.27;3.00;;;28.30;65.30;;;28.70;nan;99359.75;5041017;28;20643;-66
2022/05/23 10:42:57;;;;;;;3.97;3.07;;;27.80;67.40;;;27.85;nan;99346.34;5046923;28;20640;-66
2022/05/23 10:45:31;;;;;;;3.47;3.13;;;27.40;68.90;;;27.10;nan;99357.78;5072154;28;20659;-66
2022/05/23 10:48:25;;;;;;;5.80;3.50;;;26.60;71.20;;;26.73;nan;99348.66;5057673;28;20636;-66
2022/05/23 10:51:07;;;;;;;3.60;3.20;;;26.20;73.40;;;26.58;nan;99356.44;5051639;28;21067;-67
2022/05/23 10:54:18;;;;;;;7.30;2.17;;;25.90;75.70;;;26.39;nan;99358.56;5052392;28;20625;-66
2022/05/23 10:57:25;;;;;;;3.40;3.10;;;25.70;77.10;;;25.97;nan;99355.41;5053163;28;20646;-66
2022/05/23 11:00:02;;;;;;;3.57;2.77;;;25.40;79.70;;;26.08;nan;99354.56;5049971;28;20655;-67
2022/05/23 11:03:06;;;;;;;7.37;1.40;;;25.40;81.70;;;26.25;nan;99345.75;5058636;28;20645;-66
2022/05/23 11:06:01;;;;;;;2.40;2.20;;;25.60;82.80;;;26.34;nan;99339.78;5052682;28;20667;-68
2022/05/23 11:08:56;;;;;;;3.83;3.03;;;25.80;83.30;;;26.42;nan;99334.00;5046694;28;20671;-67
2022/05/23 11:12:03;;;;;;;5.37;3.50;;;25.90;83.80;;;26.56;nan;99331.78;5071189;28;20618;-67
2022/05/23 11:15:23;;;;;;;4.40;4.00;;;25.90;85.80;;;26.67;nan;99334.38;5064880;28;20656;-67
2022/05/23 11:18:07;;;;;;;3.90;3.20;;;26.10;86.50;;;26.71;nan;99330.16;5049959;28;20629;-66
2022/05/23 11:20:38;;;;;;;3.07;2.77;;;26.10;86.50;;;26.56;nan;99307.72;5050062;28;21420;-66
2022/05/23 11:23:36;;;;;;;5.27;3.40;;;26.00;87.40;;;26.77;nan;99310.47;5048194;28;21263;-67
2022/05/23 11:26:17;;;;;;;7.10;2.03;;;26.20;87.20;;;26.38;nan;99298.13;5030685;28;20660;-64
2022/05/23 11:34:55;;;;;;;6.80;4.10;;;25.50;90.70;;;26.08;nan;99306.47;5049686;28;24821;-67
2022/05/23 11:37:45;;;;;;;4.37;2.23;;;25.50;91.20;;;25.66;nan;99315.81;5050589;28;20630;-67
2022/05/23 11:40:51;;;;;;;3.70;3.40;;;25.20;92.00;;;25.72;nan;99308.72;5059221;28;20654;-67
2022/05/23 11:43:21;;;;;;;4.07;3.33;;;24.90;93.50;;;25.71;nan;99302.56;5032020;28;20643;-66
2022/05/23 11:46:04;;;;;;;5.80;3.70;;;25.00;94.40;;;25.74;nan;99296.75;5050105;28;21232;-67
2022/05/23 11:48:43;;;;;;;5.77;3.47;;;25.10;94.20;;;25.26;nan;99283.78;5049377;28;20659;-67
2022/05/23 11:51:17;;;;;;;4.40;3.10;;;24.80;95.40;;;25.34;nan;99277.28;5050823;28;21276;-67
2022/05/23 11:53:56;;;;;;;3.27;2.30;;;24.70;96.10;;;25.51;nan;99277.34;5049754;28;20702;-66